createdAt,value
2023-04-27T00:00:31.012Z,59.20
2023-04-27T00:03:16.795Z,59.06
2023-04-27T00:06:02.590Z,58.76
2023-04-27T00:08:47.860Z,59.08
2023-04-27T00:11:33.350Z,59.13
2023-04-27T00:14:18.610Z,59.54
2023-04-27T00:17:04.233Z,58.45
2023-04-27T00:19:49.531Z,58.88
2023-04-27T00:22:34.898Z,59.06
2023-04-27T00:25:20.320Z,58.52
2023-04-27T00:28:05.764Z,58.96
2023-04-27T00:30:54.306Z,59.17
2023-04-27T00:33:39.785Z,59.14
2023-04-27T00:36:24.978Z,59.08
2023-04-27T00:39:10.667Z,59.52
2023-04-27T00:41:56.555Z,59.96
2023-04-27T00:44:42.094Z,59.99
2023-04-27T00:47:29.198Z,60.10
2023-04-27T00:50:14.959Z,59.51
2023-04-27T00:53:02.020Z,60.05
2023-04-27T00:55:47.296Z,59.89
2023-04-27T00:58:33.048Z,60.09
2023-04-27T01:01:20.649Z,60.53
2023-04-27T01:04:06.534Z,60.71
2023-04-27T01:06:52.402Z,60.78
2023-04-27T01:09:37.824Z,60.70
2023-04-27T01:12:23.218Z,61.09
2023-04-27T01:15:09.586Z,61.01
2023-04-27T01:18:02.140Z,60.92
2023-04-27T01:20:48.014Z,61.33
2023-04-27T01:23:33.620Z,61.25
2023-04-27T01:26:19.104Z,60.98
2023-04-27T01:29:04.511Z,61.33
2023-04-27T01:31:49.958Z,61.07
2023-04-27T01:34:35.312Z,61.29
2023-04-27T01:37:20.687Z,61.52
2023-04-27T01:40:06.718Z,61.33
2023-04-27T01:42:51.836Z,60.99
2023-04-27T01:45:37.006Z,61.24
2023-04-27T01:48:22.880Z,61.33
2023-04-27T01:51:09.022Z,61.79
2023-04-27T01:53:54.582Z,60.74
2023-04-27T01:56:39.812Z,60.96
2023-04-27T01:59:25.180Z,60.77
2023-04-27T02:02:10.444Z,61.14
2023-04-27T02:04:56.341Z,61.54
2023-04-27T02:07:41.883Z,61.98
2023-04-27T02:10:27.255Z,62.26
2023-04-27T02:13:15.631Z,62.00
2023-04-27T02:16:04.219Z,61.91
2023-04-27T02:18:49.882Z,62.11
2023-04-27T02:21:35.126Z,62.10
2023-04-27T02:24:20.424Z,61.88
2023-04-27T02:27:06.162Z,61.98
2023-04-27T02:29:52.269Z,62.15
2023-04-27T02:32:38.451Z,61.69
2023-04-27T02:35:23.996Z,61.84
2023-04-27T02:38:10.403Z,62.26
2023-04-27T02:40:57.304Z,62.77
2023-04-27T02:43:42.643Z,62.47
2023-04-27T02:46:28.038Z,62.68
2023-04-27T02:49:13.569Z,62.86
2023-04-27T02:51:59.256Z,63.10
2023-04-27T02:54:44.571Z,63.00
2023-04-27T02:57:29.888Z,62.85
2023-04-27T03:00:15.528Z,62.94
2023-04-27T03:03:01.640Z,63.14
2023-04-27T03:05:47.140Z,63.02
2023-04-27T03:08:32.317Z,62.88
2023-04-27T03:11:17.810Z,62.83
2023-04-27T03:14:03.853Z,62.75
2023-04-27T03:16:49.542Z,62.67
2023-04-27T03:19:35.038Z,62.80
2023-04-27T03:22:20.458Z,63.02
2023-04-27T03:25:06.877Z,62.48
2023-04-27T03:27:52.381Z,62.51
2023-04-27T03:30:40.493Z,62.92
2023-04-27T03:33:28.188Z,62.73
2023-04-27T03:36:13.525Z,62.50
2023-04-27T03:39:00.462Z,62.38
2023-04-27T03:41:46.462Z,62.79
2023-04-27T03:44:33.550Z,62.86
2023-04-27T03:47:19.101Z,63.20
2023-04-27T03:50:05.557Z,62.90
2023-04-27T03:52:51.081Z,62.88
2023-04-27T03:55:44.048Z,63.19
2023-04-27T03:58:30.904Z,63.09
2023-04-27T04:01:32.048Z,62.93
2023-04-27T04:04:17.748Z,62.75
2023-04-27T04:07:03.357Z,62.85
2023-04-27T04:09:48.990Z,63.43
2023-04-27T04:12:34.229Z,63.24
2023-04-27T04:15:20.364Z,63.80
2023-04-27T04:18:07.525Z,63.59
2023-04-27T04:20:53.240Z,63.37
2023-04-27T04:23:41.201Z,64.00
2023-04-27T04:26:27.334Z,64.20
2023-04-27T04:29:13.175Z,64.50
2023-04-27T04:31:59.094Z,64.31
2023-04-27T04:34:49.431Z,64.42
2023-04-27T04:37:38.215Z,64.92
2023-04-27T04:40:23.713Z,64.89
2023-04-27T04:43:09.088Z,65.31
2023-04-27T04:45:54.369Z,65.10
2023-04-27T04:48:39.724Z,65.10
2023-04-27T04:51:25.032Z,64.76
2023-04-27T04:54:10.554Z,64.50
2023-04-27T04:56:56.473Z,64.86
2023-04-27T04:59:44.268Z,65.15
2023-04-27T05:02:30.255Z,65.12
2023-04-27T05:05:16.176Z,64.93
2023-04-27T05:08:01.563Z,65.30
2023-04-27T05:10:51.311Z,65.13
2023-04-27T05:13:39.270Z,65.42
2023-04-27T05:16:26.580Z,65.64
2023-04-27T05:19:12.520Z,65.16
2023-04-27T05:21:58.833Z,65.08
2023-04-27T05:24:44.601Z,65.79
2023-04-27T05:27:31.047Z,64.87
2023-04-27T05:30:16.773Z,64.69
2023-04-27T05:33:05.224Z,64.95
2023-04-27T05:35:51.434Z,65.26
2023-04-27T05:38:40.325Z,63.81
2023-04-27T05:41:25.589Z,63.61
2023-04-27T05:44:11.240Z,63.65
2023-04-27T05:46:57.165Z,64.18
2023-04-27T05:49:42.623Z,64.85
2023-04-27T05:52:31.058Z,64.26
2023-04-27T05:55:16.713Z,63.93
2023-04-27T05:58:08.427Z,64.04
2023-04-27T06:00:54.875Z,64.58
2023-04-27T06:03:40.479Z,63.80
2023-04-27T06:06:26.349Z,64.26
2023-04-27T06:09:12.020Z,64.07
2023-04-27T06:12:00.527Z,63.90
2023-04-27T06:14:46.245Z,64.74
2023-04-27T06:17:31.566Z,64.55
2023-04-27T06:20:17.116Z,64.30
2023-04-27T06:23:02.577Z,64.74
2023-04-27T06:25:47.915Z,65.23
2023-04-27T06:28:33.941Z,65.01
2023-04-27T06:31:19.530Z,65.35
2023-04-27T06:34:04.874Z,64.78
2023-04-27T06:36:50.217Z,65.81
2023-04-27T06:39:36.919Z,66.14
2023-04-27T06:42:22.672Z,65.88
2023-04-27T06:45:08.331Z,65.61
2023-04-27T06:47:54.108Z,65.44
2023-04-27T06:50:39.759Z,65.61
2023-04-27T06:53:25.477Z,65.43
2023-04-27T06:56:11.989Z,65.08
2023-04-27T06:58:57.296Z,66.14
2023-04-27T07:01:42.663Z,65.73
2023-04-27T07:04:28.528Z,65.78
2023-04-27T07:07:14.209Z,65.48
2023-04-27T07:09:59.487Z,65.92
2023-04-27T07:12:44.884Z,66.46
2023-04-27T07:15:33.432Z,64.59
2023-04-27T07:18:18.908Z,64.67
2023-04-27T07:21:04.413Z,61.80
2023-04-27T07:23:49.870Z,61.88
2023-04-27T07:26:36.544Z,56.72
2023-04-27T07:29:26.841Z,55.76
2023-04-27T07:32:12.800Z,58.07
2023-04-27T07:34:58.706Z,58.28
2023-04-27T07:37:45.617Z,53.63
2023-04-27T07:40:32.861Z,51.47
2023-04-27T07:43:19.116Z,51.99
2023-04-27T07:46:04.507Z,51.25
2023-04-27T07:48:50.796Z,50.31
2023-04-27T07:51:36.363Z,50.50
2023-04-27T07:54:21.732Z,48.56
2023-04-27T07:57:11.852Z,48.60
2023-04-27T07:59:57.696Z,44.78
2023-04-27T08:02:43.141Z,47.28
2023-04-27T08:05:29.847Z,46.51
2023-04-27T08:08:16.110Z,47.29
2023-04-27T08:11:01.500Z,47.34
2023-04-27T08:13:46.793Z,44.61
2023-04-27T08:16:32.433Z,46.07
2023-04-27T08:19:18.503Z,46.75
2023-04-27T08:22:04.125Z,47.35
2023-04-27T08:24:49.428Z,45.19
2023-04-27T08:27:40.590Z,44.68
2023-04-27T08:30:26.093Z,45.58
2023-04-27T08:33:11.998Z,47.89
2023-04-27T08:35:57.613Z,45.12
2023-04-27T08:38:43.131Z,44.84
2023-04-27T08:41:28.731Z,42.05
2023-04-27T08:44:15.061Z,38.91
2023-04-27T08:47:01.048Z,41.29
2023-04-27T08:49:46.890Z,41.88
2023-04-27T08:52:32.488Z,43.63
2023-04-27T08:55:18.007Z,40.62
2023-04-27T08:58:04.226Z,40.13
2023-04-27T09:00:52.515Z,39.42
2023-04-27T09:03:38.655Z,39.82
2023-04-27T09:06:35.041Z,41.91
2023-04-27T09:09:24.515Z,40.17
2023-04-27T09:12:20.959Z,41.95
2023-04-27T09:15:08.604Z,39.76
2023-04-27T09:17:56.480Z,40.91
2023-04-27T09:20:46.115Z,40.36
2023-04-27T09:23:33.914Z,40.62
2023-04-27T09:26:28.697Z,40.02
2023-04-27T09:29:14.506Z,39.14
2023-04-27T09:32:00.919Z,37.70
2023-04-27T09:34:47.007Z,38.78
2023-04-27T09:37:32.513Z,39.83
2023-04-27T09:40:19.805Z,37.31
2023-04-27T09:43:06.619Z,38.54
2023-04-27T09:45:52.211Z,40.57
2023-04-27T09:48:39.249Z,42.77
2023-04-27T09:51:24.710Z,41.45
2023-04-27T09:54:13.501Z,40.63
2023-04-27T09:57:18.102Z,41.55
2023-04-27T10:00:12.773Z,40.57
2023-04-27T10:03:29.867Z,39.86
2023-04-27T10:06:46.749Z,40.81
2023-04-27T10:09:37.451Z,39.35
2023-04-27T10:12:36.226Z,40.79
2023-04-27T10:15:27.180Z,39.13
2023-04-27T10:18:12.993Z,38.16
2023-04-27T10:21:10.070Z,38.85
2023-04-27T10:23:56.002Z,41.09
2023-04-27T10:26:47.015Z,39.72
2023-04-27T10:29:42.107Z,39.43
2023-04-27T10:32:29.214Z,37.81
2023-04-27T10:35:14.617Z,38.79
2023-04-27T10:38:08.606Z,36.82
2023-04-27T10:41:02.162Z,38.89
2023-04-27T10:43:47.889Z,40.01
2023-04-27T10:46:36.107Z,40.77
2023-04-27T10:49:22.740Z,41.73
2023-04-27T10:52:08.497Z,40.04
2023-04-27T10:54:53.979Z,38.22
2023-04-27T10:57:47.309Z,38.94
2023-04-27T11:00:37.392Z,39.06
2023-04-27T11:03:24.326Z,38.45
2023-04-27T11:06:10.326Z,36.60
2023-04-27T11:08:56.614Z,37.10
2023-04-27T11:11:49.084Z,38.18
2023-04-27T11:14:36.872Z,39.00
2023-04-27T11:17:29.966Z,35.72
2023-04-27T11:20:24.733Z,38.01
2023-04-27T11:23:11.214Z,38.82
2023-04-27T11:25:57.726Z,37.64
2023-04-27T11:28:46.318Z,36.73
2023-04-27T11:32:01.845Z,35.58
2023-04-27T11:35:01.984Z,37.95
2023-04-27T11:37:58.421Z,38.55
2023-04-27T11:40:47.201Z,39.30
2023-04-27T11:43:34.593Z,37.89
2023-04-27T11:46:22.303Z,39.39
2023-04-27T11:49:11.844Z,40.78
2023-04-27T11:51:58.724Z,37.26
2023-04-27T11:54:53.184Z,34.91
2023-04-27T11:57:38.987Z,33.49
2023-04-27T12:00:25.508Z,37.13
2023-04-27T12:03:11.469Z,37.94
2023-04-27T12:08:43.722Z,36.89
2023-04-27T12:11:29.043Z,35.57
2023-04-27T12:14:14.837Z,36.39
2023-04-27T12:17:01.010Z,37.65
2023-04-27T12:19:46.724Z,36.13
2023-04-27T12:22:32.597Z,36.91
2023-04-27T12:25:20.073Z,34.92
2023-04-27T12:28:06.230Z,36.92
2023-04-27T12:30:52.639Z,37.50
2023-04-27T12:33:38.537Z,37.41
2023-04-27T12:36:23.993Z,38.37
2023-04-27T12:39:27.611Z,36.12
2023-04-27T12:42:13.047Z,35.42
2023-04-27T12:44:58.541Z,33.07
2023-04-27T12:48:01.192Z,34.39
2023-04-27T12:50:48.556Z,34.60
2023-04-27T12:53:33.870Z,35.52
2023-04-27T12:56:19.722Z,33.69
2023-04-27T12:59:06.270Z,35.94
2023-04-27T13:01:52.074Z,34.95
2023-04-27T13:04:37.614Z,34.90
2023-04-27T13:07:23.372Z,35.15
2023-04-27T13:10:09.413Z,35.36
2023-04-27T13:12:54.927Z,36.54
2023-04-27T13:15:40.348Z,36.09
2023-04-27T13:18:26.137Z,35.83
2023-04-27T13:21:11.502Z,32.92
2023-04-27T13:23:59.539Z,33.24
2023-04-27T13:26:46.520Z,33.25
2023-04-27T13:29:33.483Z,34.16
2023-04-27T13:32:20.308Z,34.26
2023-04-27T13:35:06.142Z,34.54
2023-04-27T13:37:53.833Z,35.46
2023-04-27T13:40:39.939Z,36.50
2023-04-27T13:43:27.097Z,34.44
2023-04-27T13:46:13.777Z,34.59
2023-04-27T13:48:59.339Z,35.38
2023-04-27T13:51:44.773Z,37.25
2023-04-27T13:54:30.459Z,37.28
2023-04-27T13:57:16.213Z,36.61
2023-04-27T14:00:01.967Z,34.69
2023-04-27T14:02:52.753Z,35.35
2023-04-27T14:05:38.783Z,36.90
2023-04-27T14:08:24.250Z,37.13
2023-04-27T14:11:13.126Z,36.48
2023-04-27T14:13:58.941Z,34.12
2023-04-27T14:16:44.380Z,35.63
2023-04-27T14:19:31.622Z,35.52
2023-04-27T14:22:17.515Z,36.38
2023-04-27T14:25:03.019Z,36.09
2023-04-27T14:27:48.493Z,35.86
2023-04-27T14:30:34.866Z,36.76
2023-04-27T14:33:21.008Z,35.99
2023-04-27T14:36:07.059Z,37.04
2023-04-27T14:38:52.755Z,36.60
2023-04-27T14:41:38.150Z,37.44
2023-04-27T14:44:24.194Z,36.73
2023-04-27T14:47:09.988Z,35.75
2023-04-27T14:49:55.977Z,38.06
2023-04-27T14:52:41.358Z,36.12
2023-04-27T14:55:27.222Z,38.08
2023-04-27T14:58:16.939Z,37.46
2023-04-27T15:01:06.606Z,38.07
2023-04-27T15:03:56.066Z,37.47
2023-04-27T15:06:43.555Z,37.29
2023-04-27T15:09:29.533Z,37.20
2023-04-27T15:12:15.482Z,36.74
2023-04-27T15:15:00.848Z,36.89
2023-04-27T15:17:46.313Z,37.79
2023-04-27T15:20:32.201Z,36.26
2023-04-27T15:23:18.353Z,37.57
2023-04-27T15:26:04.185Z,36.23
2023-04-27T15:28:49.611Z,37.45
2023-04-27T15:31:35.326Z,36.55
2023-04-27T15:34:21.143Z,36.65
2023-04-27T15:37:07.925Z,37.39
2023-04-27T15:39:54.383Z,36.38
2023-04-27T15:42:40.048Z,36.16
2023-04-27T15:45:25.609Z,36.41
2023-04-27T15:48:12.161Z,37.27
2023-04-27T15:50:57.514Z,36.68
2023-04-27T15:53:43.006Z,36.87
2023-04-27T15:56:30.583Z,38.51
2023-04-27T15:59:26.319Z,39.00
2023-04-27T16:02:13.613Z,39.50
2023-04-27T16:04:59.818Z,39.98
2023-04-27T16:07:46.435Z,39.84
2023-04-27T16:10:31.599Z,39.49
2023-04-27T16:13:16.901Z,40.09
2023-04-27T16:16:02.602Z,40.42
2023-04-27T16:18:48.215Z,40.45
2023-04-27T16:21:34.179Z,40.56
2023-04-27T16:24:19.864Z,41.38
2023-04-27T16:27:05.591Z,40.55
2023-04-27T16:29:50.919Z,41.15
2023-04-27T16:32:37.771Z,41.97
2023-04-27T16:35:23.645Z,42.57
2023-04-27T16:38:09.063Z,42.76
2023-04-27T16:40:56.075Z,42.29
2023-04-27T16:43:41.526Z,42.58
2023-04-27T16:46:27.032Z,43.35
2023-04-27T16:49:12.773Z,43.44
2023-04-27T16:51:58.579Z,43.91
2023-04-27T16:54:43.968Z,43.83
2023-04-27T16:57:29.546Z,44.55
2023-04-27T17:00:15.351Z,43.79
2023-04-27T17:03:01.091Z,44.39
2023-04-27T17:05:46.851Z,44.21
2023-04-27T17:08:32.200Z,43.81
2023-04-27T17:11:19.252Z,44.81
2023-04-27T17:14:04.837Z,45.08
2023-04-27T17:16:51.147Z,45.38
2023-04-27T17:19:36.879Z,45.17
2023-04-27T17:22:22.216Z,45.70
2023-04-27T17:25:09.354Z,46.49
2023-04-27T17:27:55.460Z,46.38
2023-04-27T17:30:42.539Z,45.37
2023-04-27T17:33:28.594Z,45.07
2023-04-27T17:36:19.842Z,45.42
2023-04-27T17:39:14.776Z,46.33
2023-04-27T17:42:02.997Z,45.41
2023-04-27T17:45:03.049Z,44.43
2023-04-27T17:47:58.392Z,44.37
2023-04-27T17:50:45.002Z,44.78
2023-04-27T17:53:32.086Z,44.45
2023-04-27T17:56:18.554Z,44.41
2023-04-27T17:59:05.438Z,44.87
2023-04-27T18:01:51.438Z,45.36
2023-04-27T18:04:37.219Z,45.02
2023-04-27T18:07:23.550Z,45.56
2023-04-27T18:10:09.621Z,46.07
2023-04-27T18:12:55.548Z,45.96
2023-04-27T18:15:41.034Z,45.78
2023-04-27T18:18:27.152Z,46.62
2023-04-27T18:21:12.577Z,47.00
2023-04-27T18:23:58.162Z,47.13
2023-04-27T18:26:44.510Z,47.31
2023-04-27T18:29:30.523Z,47.45
2023-04-27T18:32:18.725Z,47.67
2023-04-27T18:35:07.038Z,48.31
2023-04-27T18:37:52.107Z,48.68
2023-04-27T18:40:37.608Z,48.00
2023-04-27T18:43:22.986Z,48.13
2023-04-27T18:46:08.906Z,48.68
2023-04-27T18:48:54.690Z,48.24
2023-04-27T18:51:40.074Z,48.45
2023-04-27T18:54:25.635Z,49.43
2023-04-27T18:57:11.460Z,50.24
2023-04-27T18:59:57.283Z,51.34
2023-04-27T19:02:43.221Z,51.91
2023-04-27T19:05:28.521Z,51.57
2023-04-27T19:08:14.387Z,51.69
2023-04-27T19:11:00.404Z,51.54
2023-04-27T19:13:45.794Z,52.16
2023-04-27T19:16:31.384Z,52.54
2023-04-27T19:19:18.886Z,53.70
2023-04-27T19:22:05.810Z,53.78
2023-04-27T19:24:51.384Z,53.98
2023-04-27T19:27:37.049Z,54.58
2023-04-27T19:30:23.153Z,53.70
2023-04-27T19:33:09.558Z,51.63
2023-04-27T19:35:55.354Z,50.60
2023-04-27T19:38:41.201Z,50.66
2023-04-27T19:41:26.735Z,51.11
2023-04-27T19:44:12.646Z,51.06
2023-04-27T19:46:58.289Z,50.71
2023-04-27T19:49:43.657Z,52.19
2023-04-27T19:52:30.110Z,51.67
2023-04-27T19:55:16.053Z,51.99
2023-04-27T19:58:01.615Z,51.50
2023-04-27T20:00:47.133Z,51.76
2023-04-27T20:03:32.782Z,52.60
2023-04-27T20:06:20.157Z,52.52
2023-04-27T20:09:05.512Z,52.75
2023-04-27T20:11:51.217Z,52.87
2023-04-27T20:14:38.555Z,53.06
2023-04-27T20:17:27.336Z,53.48
2023-04-27T20:20:13.021Z,53.89
2023-04-27T20:22:58.465Z,53.77
2023-04-27T20:25:43.659Z,54.33
2023-04-27T20:28:30.452Z,54.03
2023-04-27T20:31:16.497Z,55.13
2023-04-27T20:34:01.932Z,54.56
2023-04-27T20:36:47.565Z,54.39
2023-04-27T20:39:33.087Z,54.45
2023-04-27T20:42:18.315Z,54.08
2023-04-27T20:45:05.601Z,54.88
2023-04-27T20:47:52.210Z,54.85
2023-04-27T20:50:39.405Z,54.55
2023-04-27T20:53:26.169Z,54.54
2023-04-27T20:56:12.043Z,54.80
2023-04-27T20:58:57.621Z,54.96
2023-04-27T21:01:43.375Z,54.54
2023-04-27T21:04:28.873Z,55.42
2023-04-27T21:07:15.066Z,55.17
2023-04-27T21:10:06.011Z,54.87
2023-04-27T21:12:51.694Z,55.05
2023-04-27T21:15:38.247Z,54.84
2023-04-27T21:21:14.412Z,54.51
2023-04-27T21:24:19.510Z,54.81
2023-04-27T21:27:04.974Z,54.67
2023-04-27T21:29:50.366Z,54.74
2023-04-27T21:32:35.622Z,54.72
2023-04-27T21:35:21.338Z,54.53
2023-04-27T21:38:06.858Z,55.25
2023-04-27T21:40:52.179Z,54.98
2023-04-27T21:43:41.849Z,55.19
2023-04-27T21:46:27.095Z,54.82
2023-04-27T21:49:12.389Z,54.56
2023-04-27T21:51:57.904Z,54.80
2023-04-27T21:54:43.249Z,55.08
2023-04-27T21:57:30.893Z,55.02
2023-04-27T22:00:18.048Z,55.31
2023-04-27T22:03:03.954Z,55.59
2023-04-27T22:05:50.331Z,55.85
2023-04-27T22:08:35.808Z,56.07
2023-04-27T22:11:21.320Z,55.95
2023-04-27T22:14:06.804Z,56.13
2023-04-27T22:16:52.186Z,55.77
2023-04-27T22:19:37.980Z,56.45
2023-04-27T22:22:23.357Z,56.93
2023-04-27T22:25:10.708Z,57.05
2023-04-27T22:27:56.218Z,57.47
2023-04-27T22:30:42.316Z,57.42
2023-04-27T22:33:27.647Z,57.54
2023-04-27T22:36:13.628Z,57.75
2023-04-27T22:38:59.336Z,57.45
2023-04-27T22:41:46.265Z,56.83
2023-04-27T22:44:31.974Z,57.32
2023-04-27T22:47:18.100Z,57.22
2023-04-27T22:50:04.791Z,57.34
2023-04-27T22:52:52.976Z,56.88
2023-04-27T22:55:38.617Z,57.54
2023-04-27T22:58:24.033Z,56.96
2023-04-27T23:01:09.534Z,57.88
2023-04-27T23:03:55.110Z,57.75
2023-04-27T23:06:42.016Z,57.41
2023-04-27T23:09:27.789Z,57.80
2023-04-27T23:12:13.856Z,57.81
2023-04-27T23:14:59.253Z,57.79
2023-04-27T23:17:44.852Z,57.58
2023-04-27T23:20:30.057Z,57.56
2023-04-27T23:23:15.549Z,57.07
2023-04-27T23:26:01.616Z,57.66
2023-04-27T23:28:47.974Z,57.68
2023-04-27T23:31:33.444Z,58.36
2023-04-27T23:34:19.050Z,58.57
2023-04-27T23:37:04.747Z,59.57
2023-04-27T23:39:50.754Z,59.36
2023-04-27T23:42:36.152Z,59.54
2023-04-27T23:45:21.524Z,59.25
2023-04-27T23:48:06.953Z,59.84
2023-04-27T23:51:03.039Z,60.11
2023-04-27T23:53:48.361Z,60.17
2023-04-27T23:56:33.975Z,60.14
2023-04-27T23:59:19.767Z,59.74
